createdAt,value
2019-05-16T00:02:10.131Z,101480.01
2019-05-16T00:04:59.233Z,101481.80
2019-05-16T00:07:49.585Z,101480.64
2019-05-16T00:10:38.490Z,101475.80
2019-05-16T00:16:38.027Z,101474.56
2019-05-16T00:19:28.758Z,101474.70
2019-05-16T00:22:18.271Z,101466.53
2019-05-16T00:25:09.373Z,101466.25
2019-05-16T00:27:58.798Z,101461.69
2019-05-16T00:30:48.882Z,101460.30
2019-05-16T00:33:38.068Z,101458.88
2019-05-16T00:36:28.360Z,101459.14
2019-05-16T00:39:18.771Z,101457.44
2019-05-16T00:42:08.844Z,101451.83
2019-05-16T00:44:58.595Z,101454.17
2019-05-16T00:47:48.972Z,101451.00
2019-05-16T00:50:58.699Z,101443.08
2019-05-16T00:53:48.296Z,101447.00
2019-05-16T01:03:00.575Z,101432.98
2019-05-16T01:05:49.393Z,101437.18
2019-05-16T01:08:38.645Z,101434.00
2019-05-16T01:11:28.781Z,101425.66
2019-05-16T01:14:17.774Z,101424.91
2019-05-16T01:17:08.573Z,101419.80
2019-05-16T01:19:57.833Z,101411.05
2019-05-16T01:22:48.995Z,101409.58
2019-05-16T01:25:38.871Z,101404.22
2019-05-16T01:28:28.863Z,101408.05
2019-05-16T01:31:19.090Z,101405.68
2019-05-16T01:34:08.273Z,101405.75
2019-05-16T01:36:59.006Z,101405.27
2019-05-16T01:39:48.404Z,101404.91
2019-05-16T01:42:38.538Z,101404.77
2019-05-16T01:45:28.817Z,101397.86
2019-05-16T01:48:19.170Z,101394.11
2019-05-16T01:51:08.232Z,101386.36
2019-05-16T01:53:58.004Z,101385.20
2019-05-16T01:56:48.098Z,101388.00
2019-05-16T01:59:38.215Z,101379.67
2019-05-16T02:02:28.961Z,101374.72
2019-05-16T02:05:18.754Z,101378.98
2019-05-16T02:08:08.845Z,101376.89
2019-05-16T02:10:58.862Z,101375.05
2019-05-16T02:13:48.474Z,101371.00
2019-05-16T02:16:38.500Z,101356.72
2019-05-16T02:19:27.984Z,101358.03
2019-05-16T02:22:18.035Z,101358.23
2019-05-16T02:28:25.931Z,101364.97
2019-05-16T02:31:15.305Z,101352.77
2019-05-16T02:34:04.946Z,101347.06
2019-05-16T02:37:12.036Z,101352.55
2019-05-16T02:39:44.406Z,101356.43
2019-05-16T02:42:33.235Z,101355.30
2019-05-16T02:45:24.486Z,101350.42
2019-05-16T02:48:12.683Z,101354.08
2019-05-16T02:51:02.078Z,101349.02
2019-05-16T02:53:52.274Z,101347.84
2019-05-16T02:56:41.913Z,101347.33
2019-05-16T02:59:31.663Z,101337.67
2019-05-16T03:02:20.799Z,101336.91
2019-05-16T03:08:41.189Z,101334.91
2019-05-16T03:11:31.462Z,101333.13
2019-05-16T03:14:21.428Z,101328.78
2019-05-16T03:20:46.249Z,101320.42
2019-05-16T03:23:35.106Z,101315.16
2019-05-16T03:26:23.989Z,101311.66
2019-05-16T03:29:12.846Z,101309.00
2019-05-16T03:32:03.108Z,101308.53
2019-05-16T03:34:54.792Z,101308.21
2019-05-16T03:37:54.960Z,101308.44
2019-05-16T03:43:50.752Z,101299.76
2019-05-16T03:46:41.336Z,101299.56
2019-05-16T03:49:31.342Z,101298.20
2019-05-16T03:52:20.740Z,101298.36
2019-05-16T03:55:11.534Z,101300.95
2019-05-16T03:58:01.649Z,101302.61
2019-05-16T04:01:12.703Z,101297.72
2019-05-16T04:03:54.162Z,101300.41
2019-05-16T04:06:42.960Z,101294.28
2019-05-16T04:09:31.803Z,101296.23
2019-05-16T04:12:21.356Z,101292.53
2019-05-16T04:15:11.818Z,101297.49
2019-05-16T04:18:01.827Z,101297.39
2019-05-16T04:20:52.427Z,101296.97
2019-05-16T04:23:41.998Z,101289.00
2019-05-16T04:26:35.781Z,101300.47
2019-05-16T04:29:22.397Z,101296.12
2019-05-16T04:32:11.232Z,101295.44
2019-05-16T04:35:02.535Z,101295.56
2019-05-16T04:37:51.454Z,101293.00
2019-05-16T04:40:42.400Z,101295.78
2019-05-16T04:43:31.927Z,101294.48
2019-05-16T04:46:21.641Z,101294.90
2019-05-16T04:49:11.573Z,101295.92
2019-05-16T04:52:01.936Z,101294.86
2019-05-16T04:54:51.318Z,101301.06
2019-05-16T04:57:42.453Z,101303.04
2019-05-16T05:00:32.116Z,101300.73
2019-05-16T05:06:31.275Z,101285.86
2019-05-16T05:09:20.964Z,101287.20
2019-05-16T05:12:11.406Z,101283.98
2019-05-16T05:15:01.224Z,101276.52
2019-05-16T05:17:51.293Z,101277.19
2019-05-16T05:20:41.064Z,101278.95
2019-05-16T05:23:30.693Z,101278.14
2019-05-16T05:26:19.975Z,101278.02
2019-05-16T05:29:10.380Z,101281.02
2019-05-16T05:32:04.198Z,101277.11
2019-05-16T05:34:51.324Z,101275.89
2019-05-16T05:37:41.060Z,101271.74
2019-05-16T05:40:30.787Z,101263.06
2019-05-16T05:43:21.539Z,101269.62
2019-05-16T05:46:11.154Z,101271.11
2019-05-16T05:49:00.917Z,101269.89
2019-05-16T05:51:50.122Z,101268.09
2019-05-16T05:54:40.841Z,101266.59
2019-05-16T05:57:30.892Z,101270.10
2019-05-16T06:03:34.353Z,101267.70
2019-05-16T06:06:23.179Z,101268.06
2019-05-16T06:09:25.317Z,101265.20
2019-05-16T06:18:32.013Z,101265.88
2019-05-16T06:21:20.839Z,101267.55
2019-05-16T06:24:10.792Z,101259.36
2019-05-16T06:27:00.962Z,101261.55
2019-05-16T06:29:50.929Z,101260.96
2019-05-16T06:36:10.819Z,101258.03
2019-05-16T06:39:00.237Z,101262.55
2019-05-16T06:41:50.936Z,101260.37
2019-05-16T06:44:40.251Z,101256.69
2019-05-16T06:47:30.619Z,101250.92
2019-05-16T06:50:40.447Z,101253.80
2019-05-16T06:53:29.911Z,101251.89
2019-05-16T06:56:20.204Z,101242.87
2019-05-16T06:59:10.564Z,101251.13
2019-05-16T07:02:00.466Z,101240.07
2019-05-16T07:04:42.571Z,101241.41
2019-05-16T07:07:31.422Z,101235.62
2019-05-16T07:10:20.569Z,101234.44
2019-05-16T07:13:10.361Z,101233.89
2019-05-16T07:16:00.697Z,101235.01
2019-05-16T07:18:50.817Z,101229.67
2019-05-16T07:21:41.177Z,101228.53
2019-05-16T07:24:30.517Z,101223.42
2019-05-16T07:27:21.913Z,101223.19
2019-05-16T07:33:26.671Z,101214.69
2019-05-16T07:36:16.008Z,101218.08
2019-05-16T07:39:06.291Z,101210.91
2019-05-16T07:41:55.143Z,101218.39
2019-05-16T07:44:44.042Z,101215.06
2019-05-16T07:47:32.896Z,101210.06
2019-05-16T07:50:21.735Z,101217.71
2019-05-16T07:53:10.774Z,101204.06
2019-05-16T07:56:00.164Z,101200.00
2019-05-16T07:58:50.829Z,101197.09
2019-05-16T08:01:43.382Z,101198.34
2019-05-16T08:04:31.476Z,101199.50
2019-05-16T08:07:13.757Z,101198.30
2019-05-16T08:09:43.324Z,101196.56
2019-05-16T08:12:33.041Z,101193.81
2019-05-16T08:15:23.198Z,101192.09
2019-05-16T08:18:12.066Z,101184.08
2019-05-16T08:21:01.570Z,101193.31
2019-05-16T08:23:51.469Z,101188.23
2019-05-16T08:26:43.041Z,101192.63
2019-05-16T08:29:31.724Z,101187.00
2019-05-16T08:35:12.118Z,101175.66
2019-05-16T08:38:01.279Z,101170.38
2019-05-16T08:41:06.146Z,101166.03
2019-05-16T08:43:41.542Z,101167.33
2019-05-16T08:46:32.410Z,101163.52
2019-05-16T08:49:22.285Z,101164.56
2019-05-16T08:52:12.401Z,101163.98
2019-05-16T08:55:03.531Z,101160.28
2019-05-16T08:57:52.925Z,101154.69
2019-05-16T09:00:42.440Z,101158.55
2019-05-16T09:03:32.268Z,101160.62
2019-05-16T09:06:15.219Z,101156.43
2019-05-16T09:10:41.403Z,101176.17
2019-05-16T09:13:48.177Z,101154.12
2019-05-16T09:16:37.276Z,101150.64
2019-05-16T09:19:27.799Z,101144.66
2019-05-16T09:22:18.219Z,101146.86
2019-05-16T09:28:22.598Z,101138.99
2019-05-16T09:31:11.487Z,101128.97
2019-05-16T09:34:00.352Z,101128.56
2019-05-16T09:36:49.237Z,101127.10
2019-05-16T09:39:18.886Z,101132.35
2019-05-16T09:42:08.312Z,101129.70
2019-05-16T09:44:58.162Z,101126.33
2019-05-16T09:47:48.497Z,101125.97
2019-05-16T09:50:37.976Z,101120.30
2019-05-16T09:53:28.202Z,101117.22
2019-05-16T09:56:17.065Z,101114.55
2019-05-16T09:59:06.915Z,101105.84
2019-05-16T10:01:57.171Z,101106.29
2019-05-16T10:04:47.471Z,101099.18
2019-05-16T10:07:30.933Z,101102.66
2019-05-16T10:10:00.434Z,101095.40
2019-05-16T10:12:49.263Z,101092.78
2019-05-16T10:15:38.159Z,101095.81
2019-05-16T10:18:27.736Z,101090.24
2019-05-16T10:21:20.490Z,101088.82
2019-05-16T10:24:08.241Z,101081.66
2019-05-16T10:26:57.270Z,101078.84
2019-05-16T10:29:48.489Z,101079.26
2019-05-16T10:32:39.731Z,101072.29
2019-05-16T10:35:30.160Z,101069.81
2019-05-16T10:38:19.534Z,101063.46
2019-05-16T10:41:08.356Z,101062.22
2019-05-16T10:43:57.240Z,101059.30
2019-05-16T10:46:47.974Z,101051.86
2019-05-16T10:49:38.773Z,101054.71
2019-05-16T10:52:27.281Z,101059.95
2019-05-16T10:55:17.738Z,101046.94
2019-05-16T10:58:07.533Z,101042.60
2019-05-16T11:01:15.614Z,101044.05
2019-05-16T11:03:49.190Z,101038.42
2019-05-16T11:06:31.732Z,101038.21
2019-05-16T11:09:20.577Z,101029.25
2019-05-16T11:12:09.433Z,101032.44
2019-05-16T11:14:58.300Z,101020.79
2019-05-16T11:17:47.112Z,101018.50
2019-05-16T11:20:37.402Z,101017.73
2019-05-16T11:23:30.855Z,101019.99
2019-05-16T11:26:17.077Z,101008.77
2019-05-16T11:29:07.446Z,101004.42
2019-05-16T11:31:57.392Z,101004.74
2019-05-16T11:34:47.952Z,100998.42
2019-05-16T11:37:37.872Z,101000.52
2019-05-16T11:40:30.198Z,100985.95
2019-05-16T11:43:21.734Z,100990.96
2019-05-16T11:46:09.410Z,100984.71
2019-05-16T11:48:58.264Z,100978.63
2019-05-16T11:51:47.428Z,100976.63
2019-05-16T11:54:37.645Z,100976.91
2019-05-16T11:57:26.474Z,100976.52
2019-05-16T12:00:37.241Z,100967.46
2019-05-16T12:03:28.237Z,100962.95
2019-05-16T12:06:11.352Z,100955.19
2019-05-16T12:09:00.173Z,100949.72
2019-05-16T12:11:49.031Z,100945.30
2019-05-16T12:14:37.888Z,100947.22
2019-05-16T12:17:27.991Z,100927.52
2019-05-16T12:20:17.523Z,100931.63
2019-05-16T12:23:07.971Z,100923.34
2019-05-16T12:25:59.948Z,100929.19
2019-05-16T12:28:47.557Z,100922.69
2019-05-16T12:31:37.352Z,100916.46
2019-05-16T12:34:27.087Z,100919.11
2019-05-16T12:37:15.915Z,100911.11
2019-05-16T12:40:26.837Z,100911.27
2019-05-16T12:43:17.967Z,100901.63
2019-05-16T12:46:07.527Z,100893.39
2019-05-16T12:48:57.702Z,100894.27
2019-05-16T12:51:47.920Z,100881.58
2019-05-16T12:54:37.088Z,100883.55
2019-05-16T12:57:31.125Z,100882.67
2019-05-16T13:03:33.033Z,100875.24
2019-05-16T13:06:17.104Z,100859.44
2019-05-16T13:09:26.537Z,100871.48
2019-05-16T13:12:17.496Z,100863.59
2019-05-16T13:18:02.309Z,100855.78
2019-05-16T13:20:51.214Z,100852.30
2019-05-16T13:23:40.026Z,100842.50
2019-05-16T13:26:28.866Z,100836.78
2019-05-16T13:29:18.230Z,100831.48
2019-05-16T13:32:08.333Z,100831.50
2019-05-16T13:34:58.961Z,100823.55
2019-05-16T13:37:48.008Z,100826.14
2019-05-16T13:40:36.882Z,100823.16
2019-05-16T13:43:26.995Z,100814.98
2019-05-16T13:46:17.223Z,100813.39
2019-05-16T13:49:07.366Z,100806.47
2019-05-16T13:51:57.554Z,100803.70
2019-05-16T13:54:46.413Z,100804.55
2019-05-16T13:57:37.384Z,100803.53
2019-05-16T14:00:27.901Z,100789.63
2019-05-16T14:03:17.922Z,100787.97
2019-05-16T14:06:07.441Z,100780.52
2019-05-16T14:08:56.787Z,100782.73
2019-05-16T14:11:46.979Z,100783.08
2019-05-16T14:14:41.971Z,100785.13
2019-05-16T14:17:27.534Z,100776.95
2019-05-16T14:23:32.360Z,100782.06
2019-05-16T14:26:21.200Z,100776.70
2019-05-16T14:29:10.032Z,100783.88
2019-05-16T14:31:58.856Z,100784.50
2019-05-16T14:34:51.321Z,100778.36
2019-05-16T14:37:38.457Z,100781.43
2019-05-16T14:40:27.790Z,100775.11
2019-05-16T14:43:17.795Z,100772.31
2019-05-16T14:46:09.375Z,100769.70
2019-05-16T14:48:57.434Z,100770.06
2019-05-16T14:51:47.736Z,100776.13
2019-05-16T14:54:37.707Z,100770.08
2019-05-16T14:57:27.543Z,100776.05
2019-05-16T15:03:31.740Z,100771.68
2019-05-16T15:06:20.593Z,100770.55
2019-05-16T15:09:03.714Z,100773.84
2019-05-16T15:11:52.568Z,100772.44
2019-05-16T15:14:41.390Z,100780.91
2019-05-16T15:17:30.011Z,100773.19
2019-05-16T15:20:19.035Z,100767.58
2019-05-16T15:23:07.965Z,100775.10
2019-05-16T15:25:56.811Z,100770.73
2019-05-16T15:28:47.959Z,100765.28
2019-05-16T15:31:39.435Z,100759.99
2019-05-16T15:34:29.942Z,100760.67
2019-05-16T15:37:17.560Z,100755.91
2019-05-16T15:40:27.295Z,100746.52
2019-05-16T15:43:17.997Z,100743.89
2019-05-16T15:49:37.578Z,100738.49
2019-05-16T15:55:54.225Z,100739.66
2019-05-16T15:58:43.091Z,100738.48
2019-05-16T16:01:31.942Z,100731.56
2019-05-16T16:04:22.754Z,100732.55
2019-05-16T16:07:07.402Z,100727.34
2019-05-16T16:09:57.524Z,100731.34
2019-05-16T16:12:47.749Z,100732.22
2019-05-16T16:18:51.588Z,100730.25
2019-05-16T16:21:40.498Z,100723.62
2019-05-16T16:24:29.409Z,100720.97
2019-05-16T16:27:18.237Z,100718.36
2019-05-16T16:33:27.316Z,100710.90
2019-05-16T16:36:13.489Z,100710.48
2019-05-16T16:39:02.360Z,100707.98
2019-05-16T16:41:51.212Z,100702.40
2019-05-16T16:44:40.069Z,100703.34
2019-05-16T16:47:29.024Z,100700.89
2019-05-16T16:50:18.013Z,100697.38
2019-05-16T16:53:07.268Z,100696.08
2019-05-16T16:55:57.501Z,100692.61
2019-05-16T16:58:46.713Z,100693.03
2019-05-16T17:01:37.523Z,100687.78
2019-05-16T17:04:27.451Z,100675.57
2019-05-16T17:07:09.093Z,100679.92
2019-05-16T17:09:50.616Z,100677.33
2019-05-16T17:12:42.328Z,100674.23
2019-05-16T17:15:30.222Z,100671.16
2019-05-16T17:18:19.056Z,100665.88
2019-05-16T17:21:08.228Z,100665.01
2019-05-16T17:24:01.022Z,100654.39
2019-05-16T17:26:49.932Z,100658.00
2019-05-16T17:29:38.781Z,100651.98
2019-05-16T17:32:27.930Z,100650.70
2019-05-16T17:38:31.762Z,100644.63
2019-05-16T17:41:20.421Z,100647.30
2019-05-16T17:44:09.320Z,100645.58
2019-05-16T17:46:58.190Z,100639.42
2019-05-16T17:49:47.328Z,100639.05
2019-05-16T17:52:36.896Z,100633.81
2019-05-16T17:55:27.054Z,100629.47
2019-05-16T17:58:16.500Z,100626.00
2019-05-16T18:04:17.234Z,100628.19
2019-05-16T18:07:07.345Z,100623.83
2019-05-16T18:09:50.129Z,100618.61
2019-05-16T18:12:38.977Z,100623.83
2019-05-16T18:15:27.917Z,100615.55
2019-05-16T18:18:17.666Z,100616.45
2019-05-16T18:21:07.485Z,100613.83
2019-05-16T18:23:56.293Z,100617.31
2019-05-16T18:26:26.844Z,100612.52
2019-05-16T18:29:16.488Z,100610.33
2019-05-16T18:32:06.947Z,100612.50
2019-05-16T18:34:56.410Z,100610.31
2019-05-16T18:37:46.609Z,100613.37
2019-05-16T18:40:36.778Z,100616.42
2019-05-16T18:43:27.089Z,100611.11
2019-05-16T18:46:16.670Z,100604.97
2019-05-16T18:49:07.248Z,100606.20
2019-05-16T18:51:57.040Z,100606.70
2019-05-16T18:54:46.880Z,100599.27
2019-05-16T18:57:37.720Z,100599.64
2019-05-16T19:00:26.794Z,100596.61
2019-05-16T19:03:17.205Z,100594.41
2019-05-16T19:06:07.755Z,100593.03
2019-05-16T19:08:50.021Z,100592.52
2019-05-16T19:11:38.894Z,100584.17
2019-05-16T19:14:27.798Z,100590.72
2019-05-16T19:17:22.197Z,100581.56
2019-05-16T19:23:22.403Z,100580.16
2019-05-16T19:26:11.346Z,100577.55
2019-05-16T19:29:00.259Z,100578.48
2019-05-16T19:31:50.614Z,100577.11
2019-05-16T19:34:39.683Z,100577.59
2019-05-16T19:37:28.526Z,100580.14
2019-05-16T19:40:40.508Z,100581.94
2019-05-16T19:43:28.849Z,100585.40
2019-05-16T19:46:17.767Z,100583.20
2019-05-16T19:49:06.642Z,100588.41
2019-05-16T19:51:56.598Z,100586.24
2019-05-16T19:54:47.112Z,100588.92
2019-05-16T19:57:37.386Z,100594.86
2019-05-16T20:00:27.359Z,100592.23
2019-05-16T20:03:16.728Z,100600.96
2019-05-16T20:06:07.567Z,100595.24
2019-05-16T20:08:50.044Z,100595.65
2019-05-16T20:11:38.923Z,100595.44
2019-05-16T20:14:27.869Z,100596.33
2019-05-16T20:17:19.210Z,100605.09
2019-05-16T20:23:22.630Z,100610.19
2019-05-16T20:26:11.551Z,100606.48
2019-05-16T20:29:00.385Z,100608.83
2019-05-16T20:31:49.301Z,100609.95
2019-05-16T20:34:38.128Z,100605.41
2019-05-16T20:37:26.990Z,100604.11
2019-05-16T20:40:17.290Z,100605.28
2019-05-16T20:43:07.732Z,100598.25
2019-05-16T20:45:58.839Z,100600.03
2019-05-16T20:48:47.766Z,100602.64
2019-05-16T20:51:37.599Z,100603.63
2019-05-16T20:54:27.182Z,100603.67
2019-05-16T20:57:17.261Z,100606.92
2019-05-16T21:00:26.831Z,100601.02
2019-05-16T21:03:16.740Z,100600.09
2019-05-16T21:06:08.464Z,100599.84
2019-05-16T21:08:57.510Z,100599.63
2019-05-16T21:11:49.952Z,100602.17
2019-05-16T21:14:37.480Z,100594.96
2019-05-16T21:17:33.586Z,100594.10
2019-05-16T21:20:22.491Z,100590.84
2019-05-16T21:23:11.339Z,100583.98
2019-05-16T21:26:00.207Z,100583.98
2019-05-16T21:28:49.040Z,100577.56
2019-05-16T21:31:37.872Z,100575.77
2019-05-16T21:34:27.268Z,100582.19
2019-05-16T21:37:20.199Z,100569.23
2019-05-16T21:40:08.306Z,100574.41
2019-05-16T21:42:58.832Z,100571.39
2019-05-16T21:45:47.673Z,100567.50
2019-05-16T21:48:36.994Z,100567.50
2019-05-16T21:51:27.094Z,100571.95
2019-05-16T21:54:15.962Z,100567.24
2019-05-16T21:57:04.843Z,100567.23
2019-05-16T21:59:53.770Z,100555.95
2019-05-16T22:02:42.585Z,100554.28
2019-05-16T22:05:31.493Z,100550.50
2019-05-16T22:08:20.419Z,100550.39
2019-05-16T22:11:02.707Z,100549.52
2019-05-16T22:13:51.525Z,100544.76
2019-05-16T22:19:36.440Z,100545.96
2019-05-16T22:22:27.577Z,100536.38
2019-05-16T22:25:16.729Z,100532.93
2019-05-16T22:28:07.352Z,100529.95
2019-05-16T22:30:58.466Z,100526.48
2019-05-16T22:33:48.288Z,100526.50
2019-05-16T22:36:37.277Z,100524.38
2019-05-16T22:42:37.503Z,100519.63
2019-05-16T22:45:27.121Z,100515.37
2019-05-16T22:48:17.399Z,100513.38
2019-05-16T22:51:07.443Z,100511.05
2019-05-16T22:53:58.499Z,100505.37
2019-05-16T22:56:46.927Z,100504.02
2019-05-16T22:59:35.776Z,100500.56
2019-05-16T23:02:24.602Z,100495.27
2019-05-16T23:05:13.464Z,100497.86
2019-05-16T23:08:06.098Z,100490.09
2019-05-16T23:10:46.275Z,100490.09
2019-05-16T23:13:35.104Z,100480.95
2019-05-16T23:16:26.520Z,100480.20
2019-05-16T23:19:14.523Z,100476.78
2019-05-16T23:22:03.445Z,100474.90
2019-05-16T23:25:11.331Z,100469.18
2019-05-16T23:28:00.268Z,100466.15
2019-05-16T23:30:49.119Z,100464.64
2019-05-16T23:33:37.964Z,100459.08
2019-05-16T23:36:26.813Z,100460.31
2019-05-16T23:39:15.640Z,100462.41
2019-05-16T23:42:06.362Z,100455.94
2019-05-16T23:44:56.735Z,100444.70
2019-05-16T23:47:47.131Z,100441.52
2019-05-16T23:50:36.718Z,100433.94
2019-05-16T23:53:26.901Z,100434.66
2019-05-16T23:56:16.688Z,100428.02
2019-05-16T23:59:06.716Z,100416.84
